createdAt,value
2018-07-22T00:00:58.279Z,0
2018-07-22T00:01:43.389Z,0
2018-07-22T00:02:43.670Z,0
2018-07-22T00:03:43.428Z,0
2018-07-22T00:04:43.196Z,0
2018-07-22T00:05:58.141Z,0
2018-07-22T00:06:58.426Z,0
2018-07-22T00:07:43.786Z,0
2018-07-22T00:08:43.909Z,0
2018-07-22T00:09:43.582Z,0
2018-07-22T00:10:43.861Z,0
2018-07-22T00:11:43.627Z,0
2018-07-22T00:12:43.909Z,0
2018-07-22T00:13:43.933Z,0
2018-07-22T00:14:58.623Z,0
2018-07-22T00:15:43.984Z,0
2018-07-22T00:16:44.016Z,0
2018-07-22T00:17:44.040Z,0
2018-07-22T00:18:43.801Z,0
2018-07-22T00:19:44.084Z,0
2018-07-22T00:20:44.110Z,0
2018-07-22T00:21:58.798Z,0
2018-07-22T00:22:43.909Z,0
2018-07-22T00:23:43.929Z,0
2018-07-22T00:24:44.212Z,0
2018-07-22T00:25:43.972Z,0
2018-07-22T00:26:44.261Z,0
2018-07-22T00:27:44.284Z,0
2018-07-22T00:28:44.307Z,0
2018-07-22T00:29:44.367Z,0
2018-07-22T00:31:44.124Z,0
2018-07-22T00:32:44.149Z,0
2018-07-22T00:33:44.432Z,0
2018-07-22T00:34:44.454Z,0
2018-07-22T00:35:44.478Z,0
2018-07-22T00:36:44.503Z,0
2018-07-22T00:37:58.931Z,0
2018-07-22T00:39:44.571Z,0
2018-07-22T00:40:59.263Z,0
2018-07-22T00:41:44.624Z,0
2018-07-22T00:42:44.658Z,0
2018-07-22T00:43:59.076Z,0
2018-07-22T00:44:44.449Z,0
2018-07-22T00:45:44.731Z,0
2018-07-22T00:46:44.754Z,0
2018-07-22T00:47:44.519Z,0
2018-07-22T00:48:44.544Z,0
2018-07-22T00:49:59.590Z,0
2018-07-22T00:50:44.851Z,0
2018-07-22T00:51:44.871Z,0
2018-07-22T00:52:44.891Z,0
2018-07-22T00:53:59.579Z,0
2018-07-22T00:54:44.687Z,0
2018-07-22T00:55:44.718Z,0
2018-07-22T00:56:44.739Z,0
2018-07-22T00:57:45.019Z,0
2018-07-22T00:58:45.042Z,0
2018-07-22T00:59:59.567Z,0
2018-07-22T01:00:44.836Z,0
2018-07-22T01:01:45.118Z,0
2018-07-22T01:02:59.805Z,0
2018-07-22T01:03:59.825Z,0
2018-07-22T01:04:44.942Z,0
2018-07-22T01:05:45.210Z,0
2018-07-22T01:06:45.236Z,0
2018-07-22T01:07:59.929Z,0
2018-07-22T01:08:45.301Z,0
2018-07-22T01:09:59.720Z,0
2018-07-22T01:10:45.076Z,0
2018-07-22T01:11:45.361Z,0
2018-07-22T01:13:45.414Z,0
2018-07-22T01:14:45.176Z,0
2018-07-22T01:15:45.464Z,0
2018-07-22T01:16:45.490Z,0
2018-07-22T01:17:45.508Z,0
2018-07-22T01:18:45.531Z,0
2018-07-22T01:19:59.959Z,0
2018-07-22T01:20:45.579Z,0
2018-07-22T01:21:45.347Z,0
2018-07-22T01:22:45.375Z,0
2018-07-22T01:23:45.652Z,0
2018-07-22T01:24:45.678Z,0
2018-07-22T01:26:00.110Z,0
2018-07-22T01:26:45.731Z,0
2018-07-22T01:28:00.163Z,0
2018-07-22T01:28:45.262Z,0
2018-07-22T01:29:45.811Z,0
2018-07-22T01:30:45.577Z,0
2018-07-22T01:32:00.515Z,0
2018-07-22T01:33:00.533Z,0
2018-07-22T01:33:45.638Z,0
2018-07-22T01:34:45.927Z,0
2018-07-22T01:35:45.956Z,0
2018-07-22T01:36:45.987Z,0
2018-07-22T01:37:45.993Z,0
2018-07-22T01:38:45.773Z,0
2018-07-22T01:39:46.046Z,0
2018-07-22T01:41:00.731Z,0
2018-07-22T01:41:46.096Z,0
2018-07-22T01:42:46.116Z,0
2018-07-22T01:43:46.143Z,0
2018-07-22T01:45:46.201Z,0
2018-07-22T01:46:46.212Z,0
2018-07-22T01:47:46.240Z,0
2018-07-22T01:48:46.283Z,0
2018-07-22T01:50:00.952Z,0
2018-07-22T01:51:00.976Z,0
2018-07-22T01:51:46.338Z,0
2018-07-22T01:52:46.108Z,0
2018-07-22T01:53:46.385Z,0
2018-07-22T01:54:46.153Z,0
2018-07-22T01:55:46.438Z,0
2018-07-22T01:56:46.467Z,0
2018-07-22T01:58:00.892Z,0
2018-07-22T01:58:46.250Z,0
2018-07-22T01:59:46.534Z,0
2018-07-22T02:00:46.565Z,0
2018-07-22T02:03:46.633Z,0
2018-07-22T02:04:46.652Z,0
2018-07-22T02:05:46.683Z,0
2018-07-22T02:07:01.109Z,0
2018-07-22T02:07:46.735Z,0
2018-07-22T02:08:46.754Z,0
2018-07-22T02:09:46.883Z,0
2018-07-22T02:10:46.800Z,0
2018-07-22T02:11:46.820Z,0
2018-07-22T02:13:01.510Z,0
2018-07-22T02:13:46.620Z,0
2018-07-22T02:14:46.643Z,0
2018-07-22T02:16:01.583Z,0
2018-07-22T02:16:46.944Z,0
2018-07-22T02:18:46.737Z,0
2018-07-22T02:19:46.765Z,0
2018-07-22T02:20:47.206Z,0
2018-07-22T02:22:01.730Z,0
2018-07-22T02:22:47.090Z,0
2018-07-22T02:24:01.779Z,0
2018-07-22T02:24:47.143Z,0
2018-07-22T02:25:47.204Z,0
2018-07-22T02:26:46.675Z,0
2018-07-22T02:27:47.213Z,0
2018-07-22T02:29:02.000Z,4
2018-07-22T02:29:47.008Z,4
2018-07-22T02:30:47.297Z,0
2018-07-22T02:31:47.318Z,0
2018-07-22T02:32:47.354Z,4
2018-07-22T02:33:47.366Z,4
2018-07-22T02:35:47.411Z,4
2018-07-22T02:36:47.190Z,4
2018-07-22T02:37:47.208Z,8
2018-07-22T02:39:01.883Z,4
2018-07-22T02:39:47.506Z,8
2018-07-22T02:40:47.530Z,8
2018-07-22T02:41:47.554Z,8
2018-07-22T02:42:47.577Z,12
2018-07-22T02:43:47.624Z,12
2018-07-22T02:45:02.034Z,12
2018-07-22T02:45:47.658Z,16
2018-07-22T02:46:47.678Z,16
2018-07-22T02:47:47.701Z,16
2018-07-22T02:48:47.726Z,20
2018-07-22T02:49:47.743Z,24
2018-07-22T02:50:47.772Z,24
2018-07-22T02:51:47.799Z,28
2018-07-22T02:52:47.625Z,32
2018-07-22T02:53:47.856Z,32
2018-07-22T02:54:47.880Z,40
2018-07-22T02:55:47.888Z,44
2018-07-22T02:56:47.919Z,48
2018-07-22T02:57:47.939Z,52
2018-07-22T02:58:47.967Z,60
2018-07-22T03:00:02.650Z,68
2018-07-22T03:01:17.335Z,76
2018-07-22T03:01:48.034Z,84
2018-07-22T03:03:02.718Z,96
2018-07-22T03:03:47.830Z,100
2018-07-22T03:04:48.109Z,112
2018-07-22T03:05:48.135Z,120
2018-07-22T03:06:48.208Z,132
2018-07-22T03:07:48.182Z,144
2018-07-22T03:08:47.951Z,156
2018-07-22T03:10:48.275Z,180
2018-07-22T03:11:48.275Z,192
2018-07-22T03:12:48.046Z,208
2018-07-22T03:13:48.099Z,228
2018-07-22T03:14:48.354Z,248
2018-07-22T03:16:02.779Z,276
2018-07-22T03:16:47.884Z,296
2018-07-22T03:18:03.090Z,328
2018-07-22T03:19:48.483Z,376
2018-07-22T03:20:48.524Z,404
2018-07-22T03:21:48.515Z,440
2018-07-22T03:22:48.542Z,472
2018-07-22T03:23:48.567Z,496
2018-07-22T03:24:48.340Z,512
2018-07-22T03:25:48.357Z,524
2018-07-22T03:26:48.633Z,536
2018-07-22T03:27:48.660Z,552
2018-07-22T03:28:48.425Z,576
2018-07-22T03:29:48.447Z,600
2018-07-22T03:30:48.480Z,624
2018-07-22T03:31:48.507Z,652
2018-07-22T03:32:48.779Z,684
2018-07-22T03:33:48.541Z,712
2018-07-22T03:34:48.832Z,744
2018-07-22T03:36:48.874Z,800
2018-07-22T03:37:48.384Z,824
2018-07-22T03:38:48.662Z,844
2018-07-22T03:39:48.944Z,868
2018-07-22T03:40:48.970Z,892
2018-07-22T03:41:48.992Z,920
2018-07-22T03:42:48.762Z,956
2018-07-22T03:43:48.525Z,992
2018-07-22T03:44:49.116Z,1036
2018-07-22T03:45:48.831Z,1076
2018-07-22T03:46:48.865Z,1104
2018-07-22T03:48:03.813Z,1132
2018-07-22T03:48:48.658Z,1148
2018-07-22T03:49:49.187Z,1172
2018-07-22T03:50:49.053Z,1200
2018-07-22T03:51:49.238Z,1240
2018-07-22T03:52:49.259Z,1288
2018-07-22T03:53:49.281Z,1332
2018-07-22T03:54:49.306Z,1372
2018-07-22T03:55:49.075Z,1404
2018-07-22T03:58:04.041Z,1472
2018-07-22T03:58:49.399Z,1500
2018-07-22T03:59:49.423Z,1536
2018-07-22T04:00:49.448Z,1576
2018-07-22T04:01:49.213Z,1620
2018-07-22T04:02:49.503Z,1664
2018-07-22T04:04:04.211Z,1712
2018-07-22T04:04:49.544Z,1744
2018-07-22T04:05:49.309Z,1788
2018-07-22T04:06:49.591Z,1844
2018-07-22T04:07:49.617Z,1908
2018-07-22T04:08:49.645Z,1980
2018-07-22T04:09:49.719Z,2048
2018-07-22T04:10:49.689Z,2128
2018-07-22T04:11:48.942Z,2208
2018-07-22T04:12:49.487Z,2288
2018-07-22T04:13:49.760Z,2364
2018-07-22T04:14:49.788Z,2436
2018-07-22T04:15:49.809Z,2500
2018-07-22T04:17:04.501Z,2584
2018-07-22T04:17:49.861Z,2632
2018-07-22T04:18:49.883Z,2688
2018-07-22T04:20:04.312Z,2752
2018-07-22T04:20:49.930Z,2788
2018-07-22T04:21:49.698Z,2828
2018-07-22T04:22:49.463Z,2860
2018-07-22T04:23:50.006Z,2880
2018-07-22T04:24:49.766Z,2892
2018-07-22T04:25:50.057Z,2896
2018-07-22T04:26:50.076Z,2892
2018-07-22T04:28:04.502Z,2896
2018-07-22T04:28:50.120Z,2896
2018-07-22T04:29:50.149Z,2896
2018-07-22T04:30:50.173Z,2892
2018-07-22T04:31:50.198Z,2892
2018-07-22T04:33:50.237Z,2912
2018-07-22T04:34:50.007Z,2932
2018-07-22T04:36:04.951Z,2960
2018-07-22T04:36:50.315Z,2984
2018-07-22T04:38:04.999Z,3024
2018-07-22T04:38:50.371Z,3052
2018-07-22T04:39:50.382Z,3092
2018-07-22T04:40:50.649Z,3140
2018-07-22T04:41:50.430Z,3196
2018-07-22T04:43:50.482Z,3324
2018-07-22T04:44:50.509Z,3404
2018-07-22T04:45:50.530Z,3480
2018-07-22T04:46:50.565Z,3556
2018-07-22T04:47:50.578Z,3632
2018-07-22T04:48:50.620Z,3720
2018-07-22T04:49:50.635Z,3824
2018-07-22T04:51:05.319Z,3988
2018-07-22T04:51:50.682Z,4072
2018-07-22T04:52:50.801Z,4164
2018-07-22T04:53:50.725Z,4196
2018-07-22T04:54:50.752Z,4252
2018-07-22T04:55:50.777Z,4332
2018-07-22T04:56:50.802Z,4424
2018-07-22T04:58:50.849Z,4560
2018-07-22T05:00:05.536Z,4636
2018-07-22T05:01:05.304Z,4708
2018-07-22T05:01:50.411Z,4748
2018-07-22T05:02:50.697Z,4796
2018-07-22T05:03:50.971Z,4884
2018-07-22T05:04:50.996Z,5000
2018-07-22T05:05:51.024Z,5104
2018-07-22T05:06:50.786Z,5204
2018-07-22T05:08:05.735Z,5316
2018-07-22T05:08:50.831Z,5380
2018-07-22T05:09:50.862Z,5480
2018-07-22T05:10:51.147Z,5516
2018-07-22T05:12:51.194Z,5656
2018-07-22T05:13:51.216Z,5664
2018-07-22T05:14:51.244Z,5704
2018-07-22T05:15:51.263Z,5716
2018-07-22T05:16:51.290Z,5628
2018-07-22T05:17:51.311Z,5560
2018-07-22T05:18:51.342Z,5612
2018-07-22T05:19:51.360Z,5692
2018-07-22T05:20:51.386Z,5724
2018-07-22T05:21:51.458Z,5744
2018-07-22T05:23:05.846Z,5764
2018-07-22T05:23:51.469Z,5836
2018-07-22T05:25:06.152Z,6028
2018-07-22T05:25:50.996Z,6116
2018-07-22T05:27:51.559Z,6180
2018-07-22T05:30:51.640Z,6320
2018-07-22T05:31:51.662Z,6448
2018-07-22T05:32:51.688Z,6516
2018-07-22T05:33:51.719Z,6620
2018-07-22T05:34:51.482Z,6788
2018-07-22T05:36:06.549Z,6940
2018-07-22T05:36:51.271Z,6988
2018-07-22T05:37:51.807Z,7124
2018-07-22T05:39:06.499Z,7292
2018-07-22T05:40:51.894Z,7648
2018-07-22T05:41:51.650Z,7660
2018-07-22T05:42:51.932Z,7504
2018-07-22T05:44:06.366Z,7572
2018-07-22T05:44:51.994Z,7420
2018-07-22T05:45:52.009Z,7224
2018-07-22T05:46:52.052Z,7224
2018-07-22T05:47:52.061Z,7180
2018-07-22T05:48:52.084Z,6764
2018-07-22T05:49:51.856Z,6664
2018-07-22T05:50:51.877Z,6592
2018-07-22T05:51:52.163Z,6540
2018-07-22T05:52:51.925Z,6480
2018-07-22T05:53:51.702Z,6460
2018-07-22T05:55:06.896Z,6464
2018-07-22T05:55:52.256Z,6452
2018-07-22T05:56:52.287Z,6420
2018-07-22T05:57:51.793Z,6392
2018-07-22T05:59:06.994Z,6344
2018-07-22T05:59:52.457Z,6324
2018-07-22T06:00:52.127Z,6296
2018-07-22T06:01:52.158Z,6284
2018-07-22T06:02:51.926Z,6292
2018-07-22T06:03:52.458Z,6320
2018-07-22T06:04:52.637Z,6364
2018-07-22T06:05:52.514Z,6424
2018-07-22T06:06:52.531Z,6504
2018-07-22T06:07:52.573Z,6592
2018-07-22T06:08:52.587Z,6668
2018-07-22T06:09:52.619Z,6720
2018-07-22T06:11:07.044Z,6776
2018-07-22T06:14:07.118Z,7020
2018-07-22T06:15:07.394Z,7140
2018-07-22T06:15:52.503Z,7244
2018-07-22T06:16:52.898Z,7380
2018-07-22T06:17:52.820Z,7536
2018-07-22T06:18:52.349Z,7708
2018-07-22T06:19:52.348Z,7900
2018-07-22T06:20:52.889Z,8100
2018-07-22T06:21:52.913Z,8316
2018-07-22T06:22:52.943Z,8564
2018-07-22T06:24:52.998Z,9164
2018-07-22T06:26:07.428Z,9624
2018-07-22T06:26:52.781Z,9932
2018-07-22T06:27:53.063Z,10348
2018-07-22T06:28:52.572Z,10664
2018-07-22T06:29:52.858Z,10876
2018-07-22T06:30:53.201Z,11136
2018-07-22T06:31:53.163Z,11604
2018-07-22T06:32:53.193Z,11936
2018-07-22T06:33:52.699Z,11288
2018-07-22T06:34:52.986Z,11156
2018-07-22T06:36:53.298Z,12056
2018-07-22T06:37:53.076Z,11628
2018-07-22T06:38:53.088Z,11728
2018-07-22T06:39:52.856Z,11708
2018-07-22T06:40:53.432Z,11884
2018-07-22T06:41:53.423Z,12204
2018-07-22T06:43:08.111Z,12888
2018-07-22T06:43:53.214Z,13504
2018-07-22T06:45:08.160Z,14260
2018-07-22T06:45:53.535Z,14608
2018-07-22T06:46:53.564Z,15440
2018-07-22T06:47:53.587Z,16480
2018-07-22T06:49:08.274Z,17664
2018-07-22T06:51:08.321Z,21248
2018-07-22T06:52:08.344Z,25600
2018-07-22T06:52:53.447Z,27776
2018-07-22T06:53:53.477Z,31392
2018-07-22T06:54:53.759Z,34592
2018-07-22T06:55:53.785Z,36576
2018-07-22T06:56:53.810Z,32736
2018-07-22T06:58:08.244Z,36992
2018-07-22T06:58:53.867Z,33696
2018-07-22T07:00:08.556Z,30944
2018-07-22T07:00:54.145Z,29344
2018-07-22T07:01:53.944Z,29024
2018-07-22T07:02:53.723Z,29408
2018-07-22T07:04:08.411Z,30432
2018-07-22T07:05:54.058Z,28704
2018-07-22T07:06:53.569Z,30304
2018-07-22T07:07:54.120Z,31040
2018-07-22T07:08:53.885Z,32512
2018-07-22T07:09:53.917Z,29856
2018-07-22T07:12:08.894Z,35584
2018-07-22T07:12:53.999Z,35424
2018-07-22T07:14:08.956Z,40224
2018-07-22T07:14:54.315Z,41056
2018-07-22T07:15:54.082Z,37952
2018-07-22T07:17:09.039Z,35712
2018-07-22T07:18:09.061Z,38208
2018-07-22T07:18:54.429Z,37760
2018-07-22T07:19:54.463Z,35872
2018-07-22T07:20:54.761Z,29344
2018-07-22T07:21:54.259Z,24832
2018-07-22T07:22:54.548Z,22368
2018-07-22T07:24:09.239Z,20352
2018-07-22T07:24:54.608Z,20608
2018-07-22T07:25:54.387Z,21632
2018-07-22T07:26:54.563Z,25088
2018-07-22T07:27:54.437Z,23680
2018-07-22T07:28:54.727Z,16704
2018-07-22T07:30:09.431Z,12896
2018-07-22T07:31:54.560Z,11748
2018-07-22T07:32:54.845Z,11680
2018-07-22T07:34:09.546Z,11644
2018-07-22T07:34:55.007Z,11576
2018-07-22T07:35:54.772Z,11376
2018-07-22T07:37:09.624Z,10980
2018-07-22T07:37:54.731Z,10704
2018-07-22T07:38:54.761Z,10360
2018-07-22T07:39:55.047Z,10096
2018-07-22T07:40:55.073Z,9992
2018-07-22T07:41:55.109Z,10036
2018-07-22T07:42:54.873Z,10160
2018-07-22T07:43:54.911Z,10316
2018-07-22T07:44:55.193Z,10464
2018-07-22T07:46:09.626Z,10636
2018-07-22T07:46:55.250Z,10756
2018-07-22T07:47:55.274Z,10968
2018-07-22T07:48:55.049Z,11288
2018-07-22T07:50:09.993Z,11876
2018-07-22T07:50:55.104Z,12328
2018-07-22T07:51:55.386Z,13176
2018-07-22T07:52:55.424Z,14572
2018-07-22T07:53:55.189Z,17088
2018-07-22T07:55:10.140Z,19168
2018-07-22T07:55:55.502Z,23296
2018-07-22T07:57:09.941Z,22720
2018-07-22T07:57:55.304Z,26368
2018-07-22T07:58:55.072Z,20928
2018-07-22T07:59:55.099Z,18432
2018-07-22T08:01:10.314Z,18816
2018-07-22T08:01:55.673Z,19776
2018-07-22T08:02:55.440Z,23680
2018-07-22T08:03:55.924Z,30848
2018-07-22T08:05:10.421Z,29408
2018-07-22T08:06:10.464Z,32736
2018-07-22T08:06:55.556Z,34752
2018-07-22T08:07:55.611Z,34976
2018-07-22T08:08:55.620Z,36416
2018-07-22T08:09:55.915Z,36832
2018-07-22T08:11:10.338Z,35808
2018-07-22T08:11:56.080Z,33952
2018-07-22T08:12:55.736Z,24032
2018-07-22T08:13:56.021Z,19392
2018-07-22T08:14:56.056Z,18016
2018-07-22T08:15:55.827Z,17504
2018-07-22T08:16:56.113Z,17664
2018-07-22T08:17:56.146Z,18912
2018-07-22T08:18:58.999Z,22784
2018-07-22T08:19:56.206Z,26880
2018-07-22T08:20:56.235Z,28256
2018-07-22T08:21:57.119Z,29152
2018-07-22T08:22:56.298Z,26688
2018-07-22T08:23:56.324Z,22304
2018-07-22T08:24:56.094Z,20672
2018-07-22T08:25:55.875Z,20096
2018-07-22T08:26:56.191Z,20192
2018-07-22T08:27:55.673Z,20512
2018-07-22T08:29:11.143Z,21600
2018-07-22T08:29:56.499Z,21888
2018-07-22T08:30:56.534Z,22368
2018-07-22T08:31:56.577Z,22848
2018-07-22T08:33:10.998Z,23392
2018-07-22T08:33:56.632Z,23776
2018-07-22T08:34:56.395Z,24064
2018-07-22T08:35:56.430Z,24224
2018-07-22T08:36:56.457Z,24416
2018-07-22T08:37:56.847Z,24608
2018-07-22T08:40:56.837Z,26176
2018-07-22T08:41:56.869Z,25472
2018-07-22T08:42:56.637Z,25152
2018-07-22T08:43:56.929Z,24832
2018-07-22T08:44:56.696Z,23776
2018-07-22T08:45:56.729Z,22720
2018-07-22T08:46:56.761Z,21952
2018-07-22T08:47:56.789Z,21536
2018-07-22T08:49:11.743Z,21376
2018-07-22T08:49:57.115Z,21408
2018-07-22T08:50:56.880Z,21600
2018-07-22T08:51:57.168Z,21888
2018-07-22T08:52:57.200Z,22080
2018-07-22T08:53:57.081Z,22496
2018-07-22T08:54:57.278Z,22784
2018-07-22T08:56:57.323Z,22208
2018-07-22T08:57:57.356Z,21408
2018-07-22T08:58:57.585Z,20512
2018-07-22T08:59:57.412Z,20096
2018-07-22T09:01:12.104Z,20384
2018-07-22T09:01:57.478Z,20224
2018-07-22T09:02:57.252Z,20064
2018-07-22T09:03:57.542Z,20896
2018-07-22T09:05:12.227Z,20384
2018-07-22T09:05:57.358Z,20352
2018-07-22T09:06:57.370Z,20512
2018-07-22T09:07:57.662Z,21792
2018-07-22T09:08:57.690Z,23328
2018-07-22T09:09:57.464Z,25280
2018-07-22T09:10:57.748Z,26848
2018-07-22T09:11:58.091Z,26464
2018-07-22T09:13:12.476Z,27200
2018-07-22T09:14:57.882Z,27200
2018-07-22T09:15:57.650Z,27136
2018-07-22T09:16:57.941Z,27136
2018-07-22T09:18:12.510Z,27040
2018-07-22T09:18:57.759Z,26432
2018-07-22T09:19:58.031Z,24192
2018-07-22T09:21:12.726Z,26624
2018-07-22T09:21:57.839Z,26784
2018-07-22T09:22:58.126Z,27040
2018-07-22T09:23:57.908Z,26720
2018-07-22T09:24:58.195Z,26432
2018-07-22T09:25:58.223Z,26272
2018-07-22T09:26:58.026Z,25440
2018-07-22T09:27:58.037Z,23360
2018-07-22T09:28:58.322Z,22592
2018-07-22T09:29:58.363Z,24352
2018-07-22T09:30:58.131Z,25632
2018-07-22T09:31:58.422Z,24672
2018-07-22T09:32:58.462Z,24256
2018-07-22T09:33:58.487Z,23392
2018-07-22T09:34:58.520Z,22464
2018-07-22T09:36:28.085Z,22176
2018-07-22T09:36:58.586Z,21888
2018-07-22T09:37:58.365Z,21600
2018-07-22T09:38:58.649Z,20896
2018-07-22T09:39:58.684Z,21024
2018-07-22T09:40:58.717Z,21344
2018-07-22T09:42:13.570Z,21248
2018-07-22T09:43:13.457Z,21280
2018-07-22T09:44:13.482Z,20448
2018-07-22T09:44:58.845Z,20288
2018-07-22T09:45:58.623Z,20672
2018-07-22T09:46:58.915Z,23424
2018-07-22T09:47:58.949Z,24704
2018-07-22T09:48:58.977Z,24064
2018-07-22T09:49:58.756Z,25792
2018-07-22T09:50:58.785Z,24992
2018-07-22T09:51:59.077Z,23904
2018-07-22T09:52:59.108Z,22880
2018-07-22T09:53:59.148Z,21952
2018-07-22T09:54:58.655Z,21408
2018-07-22T09:55:59.208Z,21312
2018-07-22T09:56:59.236Z,21312
2018-07-22T09:58:59.042Z,20992
2018-07-22T09:59:59.078Z,21088
2018-07-22T10:01:14.083Z,21056
2018-07-22T10:01:59.418Z,20992
2018-07-22T10:02:59.173Z,20768
2018-07-22T10:04:14.150Z,20256
2018-07-22T10:04:59.370Z,20000
2018-07-22T10:05:59.532Z,19808
2018-07-22T10:07:14.227Z,20384
2018-07-22T10:08:14.261Z,20480
2018-07-22T10:08:59.624Z,20192
2018-07-22T10:09:58.885Z,20800
2018-07-22T10:10:59.700Z,19872
2018-07-22T10:11:59.465Z,19776
2018-07-22T10:12:59.496Z,19936
2018-07-22T10:15:14.525Z,20064
2018-07-22T10:15:59.858Z,19552
2018-07-22T10:16:59.893Z,19520
2018-07-22T10:18:14.588Z,21536
2018-07-22T10:18:59.953Z,20960
2018-07-22T10:19:59.725Z,20384
2018-07-22T10:20:59.760Z,19392
2018-07-22T10:22:00.046Z,18592
2018-07-22T10:23:00.080Z,18208
2018-07-22T10:24:14.779Z,18016
2018-07-22T10:25:00.146Z,18016
2018-07-22T10:26:00.181Z,18080
2018-07-22T10:26:59.958Z,18080
2018-07-22T10:28:00.243Z,18016
2018-07-22T10:29:00.278Z,18144
2018-07-22T10:30:00.306Z,18048
2018-07-22T10:31:00.348Z,16616
2018-07-22T10:32:00.119Z,16632
2018-07-22T10:33:15.068Z,15884
2018-07-22T10:34:00.434Z,15764
2018-07-22T10:35:15.128Z,15688
2018-07-22T10:36:00.806Z,15636
2018-07-22T10:37:00.529Z,15576
2018-07-22T10:38:15.229Z,15544
2018-07-22T10:39:15.270Z,15624
2018-07-22T10:40:15.295Z,15812
2018-07-22T10:41:00.410Z,16032
2018-07-22T10:42:15.352Z,17216
2018-07-22T10:43:00.727Z,18368
2018-07-22T10:44:00.515Z,19296
2018-07-22T10:45:00.370Z,20192
2018-07-22T10:46:00.560Z,18752
2018-07-22T10:47:00.587Z,20576
2018-07-22T10:48:15.546Z,19264
2018-07-22T10:49:00.659Z,20640
2018-07-22T10:50:15.356Z,19744
2018-07-22T10:51:00.944Z,19744
2018-07-22T10:52:01.017Z,19392
2018-07-22T10:53:15.765Z,18528
2018-07-22T10:54:00.813Z,18464
2018-07-22T10:55:01.105Z,18048
2018-07-22T10:56:15.539Z,16912
2018-07-22T10:57:00.906Z,17728
2018-07-22T10:58:00.942Z,16480
2018-07-22T10:59:15.893Z,16520
2018-07-22T11:00:01.267Z,16168
2018-07-22T11:01:01.293Z,15840
2018-07-22T11:02:01.074Z,15956
2018-07-22T11:03:00.845Z,15608
2018-07-22T11:04:01.397Z,15396
2018-07-22T11:05:01.429Z,16152
2018-07-22T11:06:01.461Z,15936
2018-07-22T11:07:01.487Z,15864
2018-07-22T11:08:01.268Z,15760
2018-07-22T11:09:01.325Z,18336
2018-07-22T11:10:01.586Z,17696
2018-07-22T11:11:30.944Z,17184
2018-07-22T11:12:01.643Z,16436
2018-07-22T11:13:01.423Z,16552
2018-07-22T11:14:01.450Z,16308
2018-07-22T11:15:01.601Z,16424
2018-07-22T11:16:01.793Z,16400
2018-07-22T11:17:16.207Z,16652
2018-07-22T11:18:16.501Z,16224
2018-07-22T11:19:01.875Z,15776
2018-07-22T11:21:16.643Z,17888
2018-07-22T11:22:01.962Z,18304
2018-07-22T11:23:02.003Z,18336
2018-07-22T11:24:01.769Z,18080
2018-07-22T11:25:02.065Z,17280
2018-07-22T11:26:02.099Z,16728
2018-07-22T11:27:02.124Z,17056
2018-07-22T11:28:02.161Z,17056
2018-07-22T11:29:02.190Z,17184
2018-07-22T11:30:01.961Z,17824
2018-07-22T11:31:16.660Z,17856
2018-07-22T11:32:02.021Z,17728
2018-07-22T11:34:02.346Z,17760
2018-07-22T11:35:02.383Z,17568
2018-07-22T11:36:02.310Z,17472
2018-07-22T11:37:17.104Z,16928
2018-07-22T11:38:02.473Z,16300
2018-07-22T11:39:02.517Z,15628
2018-07-22T11:40:02.278Z,15048
2018-07-22T11:41:02.570Z,14636
2018-07-22T11:42:02.356Z,14192
2018-07-22T11:43:17.298Z,13892
2018-07-22T11:44:02.667Z,13748
2018-07-22T11:45:02.440Z,13700
2018-07-22T11:46:02.217Z,13740
2018-07-22T11:47:02.604Z,13984
2018-07-22T11:48:02.534Z,14100
2018-07-22T11:49:02.830Z,14116
2018-07-22T11:50:02.601Z,14124
2018-07-22T11:51:02.631Z,14208
2018-07-22T11:52:02.923Z,14216
2018-07-22T11:54:02.981Z,13752
2018-07-22T11:55:02.755Z,13492
2018-07-22T11:56:03.049Z,13240
2018-07-22T11:57:02.822Z,13052
2018-07-22T11:58:03.106Z,12936
2018-07-22T11:59:17.804Z,12872
2018-07-22T12:00:03.284Z,12880
2018-07-22T12:02:02.975Z,12796
2018-07-22T12:03:18.042Z,12780
2018-07-22T12:04:03.037Z,12832
2018-07-22T12:05:03.327Z,12824
2018-07-22T12:06:03.590Z,12688
2018-07-22T12:07:18.123Z,12496
2018-07-22T12:08:03.162Z,12428
2018-07-22T12:09:03.465Z,12368
2018-07-22T12:10:03.232Z,12332
2018-07-22T12:11:03.264Z,12320
2018-07-22T12:12:03.550Z,12320
2018-07-22T12:14:03.611Z,12380
2018-07-22T12:15:18.302Z,12488
2018-07-22T12:16:03.418Z,12512
2018-07-22T12:17:03.720Z,12520
2018-07-22T12:18:03.476Z,12376
2018-07-22T12:19:18.427Z,12176
2018-07-22T12:20:03.284Z,12076
2018-07-22T12:21:03.569Z,11980
2018-07-22T12:22:03.860Z,11984
2018-07-22T12:23:03.895Z,12128
2018-07-22T12:24:03.925Z,12304
2018-07-22T12:25:03.696Z,12484
2018-07-22T12:26:18.648Z,12548
2018-07-22T12:27:03.757Z,12628
2018-07-22T12:28:03.849Z,12728
2018-07-22T12:29:03.836Z,12808
2018-07-22T12:30:03.594Z,12740
2018-07-22T12:31:33.469Z,12852
2018-07-22T12:33:18.871Z,12896
2018-07-22T12:34:03.980Z,12912
2018-07-22T12:35:04.010Z,12992
2018-07-22T12:36:04.035Z,13040
2018-07-22T12:37:18.727Z,12984
2018-07-22T12:39:04.130Z,12992
2018-07-22T12:40:04.465Z,12992
2018-07-22T12:41:19.110Z,12920
2018-07-22T12:42:04.481Z,12744
2018-07-22T12:43:04.253Z,12656
2018-07-22T12:44:04.285Z,12600
2018-07-22T12:45:04.316Z,12716
2018-07-22T12:46:19.266Z,12864
2018-07-22T12:47:04.378Z,12672
2018-07-22T12:49:04.695Z,12792
2018-07-22T12:50:04.738Z,12572
2018-07-22T12:51:19.163Z,12816
2018-07-22T12:52:04.829Z,12560
2018-07-22T12:53:04.847Z,12468
2018-07-22T12:54:19.511Z,11972
2018-07-22T12:55:04.625Z,11756
2018-07-22T12:56:04.654Z,11536
2018-07-22T12:57:04.684Z,11404
2018-07-22T12:58:04.974Z,11312
2018-07-22T12:59:04.842Z,11240
2018-07-22T13:00:05.035Z,11152
2018-07-22T13:01:05.071Z,11004
2018-07-22T13:02:04.844Z,10880
2018-07-22T13:03:04.871Z,10764
2018-07-22T13:04:05.154Z,10692
2018-07-22T13:05:04.929Z,10672
2018-07-22T13:06:19.882Z,10760
2018-07-22T13:07:05.436Z,10856
2018-07-22T13:09:04.791Z,11120
2018-07-22T13:11:05.373Z,10852
2018-07-22T13:12:05.400Z,10748
2018-07-22T13:13:05.274Z,10764
2018-07-22T13:14:05.462Z,10620
2018-07-22T13:15:05.495Z,10636
2018-07-22T13:16:05.270Z,10696
2018-07-22T13:17:05.555Z,10764
2018-07-22T13:18:34.911Z,10864
2018-07-22T13:19:05.831Z,10888
2018-07-22T13:20:05.652Z,10936
2018-07-22T13:21:05.674Z,11004
2018-07-22T13:23:05.732Z,10984
2018-07-22T13:24:20.430Z,10924
2018-07-22T13:25:05.800Z,10884
2018-07-22T13:26:05.830Z,10888
2018-07-22T13:27:05.859Z,10908
2018-07-22T13:28:05.632Z,10912
2018-07-22T13:29:05.926Z,10900
2018-07-22T13:30:05.993Z,10856
2018-07-22T13:31:05.723Z,10860
2018-07-22T13:32:06.024Z,10760
2018-07-22T13:33:05.791Z,10660
2018-07-22T13:34:20.736Z,10504
2018-07-22T13:36:06.132Z,10156
2018-07-22T13:37:06.177Z,9960
2018-07-22T13:39:05.977Z,9736
2018-07-22T13:40:05.741Z,9668
2018-07-22T13:41:06.289Z,9544
2018-07-22T13:43:21.009Z,9196
2018-07-22T13:45:06.157Z,9008
2018-07-22T13:46:06.177Z,8908
2018-07-22T13:47:06.211Z,8788
2018-07-22T13:48:06.494Z,8684
2018-07-22T13:49:06.263Z,8596
2018-07-22T13:50:21.265Z,8524
2018-07-22T13:51:06.073Z,8528
2018-07-22T13:52:06.621Z,8616
2018-07-22T13:53:06.398Z,8772
2018-07-22T13:55:06.453Z,9276
2018-07-22T13:56:06.736Z,9596
2018-07-22T13:57:06.507Z,9816
2018-07-22T13:58:06.812Z,10368
2018-07-22T13:59:06.572Z,9924
2018-07-22T14:00:06.862Z,10216
2018-07-22T14:01:06.900Z,10872
2018-07-22T14:02:06.402Z,11784
2018-07-22T14:03:06.693Z,11908
2018-07-22T14:04:06.469Z,12288
2018-07-22T14:05:06.548Z,12412
2018-07-22T14:06:21.187Z,12408
2018-07-22T14:07:06.816Z,12400
2018-07-22T14:08:06.838Z,12388
2018-07-22T14:09:07.137Z,12304
2018-07-22T14:10:21.825Z,12136
2018-07-22T14:11:07.195Z,12008
2018-07-22T14:12:07.074Z,11800
2018-07-22T14:13:06.993Z,11636